createdAt,value
2022-09-01T00:00:01.682Z,17.60
2022-09-01T00:02:35.181Z,17.51
2022-09-01T00:05:07.609Z,17.32
2022-09-01T00:07:36.583Z,17.17
2022-09-01T00:10:08.036Z,17.13
2022-09-01T00:12:38.447Z,17.07
2022-09-01T00:15:11.727Z,17.09
2022-09-01T00:17:40.121Z,17.11
2022-09-01T00:20:09.354Z,17.10
2022-09-01T00:22:37.552Z,17.11
2022-09-01T00:25:07.121Z,17.10
2022-09-01T00:27:35.267Z,17.02
2022-09-01T00:30:03.744Z,16.97
2022-09-01T00:32:33.222Z,16.93
2022-09-01T00:35:01.459Z,16.84
2022-09-01T00:37:29.788Z,16.85
2022-09-01T00:39:58.011Z,16.74
2022-09-01T00:42:26.107Z,16.64
2022-09-01T00:44:54.212Z,16.60
2022-09-01T00:47:22.529Z,16.62
2022-09-01T00:49:53.546Z,16.64
2022-09-01T00:52:25.389Z,16.61
2022-09-01T00:54:59.287Z,16.64
2022-09-01T00:57:28.675Z,16.65
2022-09-01T01:00:00.436Z,16.60
2022-09-01T01:02:31.898Z,16.55
2022-09-01T01:05:03.389Z,16.53
2022-09-01T01:07:40.233Z,16.53
2022-09-01T01:10:12.138Z,16.56
2022-09-01T01:12:43.882Z,16.59
2022-09-01T01:15:14.099Z,16.64
2022-09-01T01:17:42.611Z,16.75
2022-09-01T01:20:34.118Z,16.80
2022-09-01T01:23:16.093Z,16.83
2022-09-01T01:25:49.988Z,16.81
2022-09-01T01:28:22.728Z,16.80
2022-09-01T01:30:57.887Z,16.85
2022-09-01T01:33:31.244Z,16.83
2022-09-01T01:36:02.119Z,16.78
2022-09-01T01:38:31.276Z,16.72
2022-09-01T01:41:03.725Z,16.73
2022-09-01T01:43:32.039Z,16.69
2022-09-01T01:46:02.916Z,16.65
2022-09-01T01:48:41.057Z,16.62
2022-09-01T01:51:12.157Z,16.65
2022-09-01T01:53:42.121Z,16.74
2022-09-01T01:56:14.345Z,16.78
2022-09-01T01:58:43.646Z,16.82
2022-09-01T02:01:17.360Z,16.86
2022-09-01T02:03:45.731Z,16.69
2022-09-01T02:06:14.127Z,16.70
2022-09-01T02:08:43.798Z,16.70
2022-09-01T02:11:17.412Z,16.74
2022-09-01T02:13:47.110Z,16.73
2022-09-01T02:16:17.106Z,16.72
2022-09-01T02:18:48.655Z,16.63
2022-09-01T02:21:20.397Z,16.52
2022-09-01T02:23:50.840Z,16.41
2022-09-01T02:26:22.908Z,16.33
2022-09-01T02:28:55.346Z,16.26
2022-09-01T02:31:28.150Z,16.24
2022-09-01T02:33:58.925Z,16.15
2022-09-01T02:36:28.116Z,16.15
2022-09-01T02:38:57.041Z,16.09
2022-09-01T02:41:32.367Z,16.06
2022-09-01T02:44:02.405Z,16.02
2022-09-01T02:46:31.469Z,15.97
2022-09-01T02:49:00.606Z,15.94
2022-09-01T02:51:29.282Z,15.95
2022-09-01T02:53:57.957Z,15.97
2022-09-01T02:56:28.082Z,15.99
2022-09-01T02:58:56.981Z,16.06
2022-09-01T03:01:29.839Z,15.98
2022-09-01T03:04:02.258Z,15.96
2022-09-01T03:06:31.487Z,15.95
2022-09-01T03:09:00.781Z,15.95
2022-09-01T03:11:33.073Z,15.94
2022-09-01T03:14:02.208Z,15.82
2022-09-01T03:16:31.593Z,15.84
2022-09-01T03:19:03.263Z,15.81
2022-09-01T03:21:32.661Z,15.75
2022-09-01T03:24:02.212Z,15.80
2022-09-01T03:26:32.938Z,15.73
2022-09-01T03:29:01.937Z,15.75
2022-09-01T03:31:31.323Z,15.70
2022-09-01T03:34:03.423Z,15.71
2022-09-01T03:36:35.945Z,15.66
2022-09-01T03:39:05.358Z,15.70
2022-09-01T03:41:38.093Z,15.63
2022-09-01T03:44:06.318Z,15.62
2022-09-01T03:46:37.196Z,15.67
2022-09-01T03:49:08.197Z,15.63
2022-09-01T03:51:39.459Z,15.59
2022-09-01T03:54:10.530Z,15.57
2022-09-01T03:56:43.134Z,15.54
2022-09-01T03:59:17.861Z,15.54
2022-09-01T04:01:47.644Z,15.55
2022-09-01T04:04:17.161Z,15.50
2022-09-01T04:06:47.777Z,15.55
2022-09-01T04:09:16.415Z,15.52
2022-09-01T04:11:48.524Z,15.54
2022-09-01T04:14:18.094Z,15.48
2022-09-01T04:17:07.535Z,15.47
2022-09-01T04:19:39.504Z,15.47
2022-09-01T04:22:13.528Z,15.53
2022-09-01T04:24:45.953Z,15.46
2022-09-01T04:27:18.245Z,15.52
2022-09-01T04:29:47.817Z,15.44
2022-09-01T04:32:17.099Z,15.46
2022-09-01T04:34:48.769Z,15.45
2022-09-01T04:37:20.375Z,15.40
2022-09-01T04:39:56.143Z,15.35
2022-09-01T04:42:29.739Z,15.27
2022-09-01T04:45:10.019Z,15.21
2022-09-01T04:47:42.199Z,15.21
2022-09-01T04:50:17.684Z,15.13
2022-09-01T04:53:07.420Z,15.10
2022-09-01T04:55:50.130Z,15.07
2022-09-01T04:58:22.435Z,15.07
2022-09-01T05:00:53.222Z,15.07
2022-09-01T05:03:24.703Z,15.04
2022-09-01T05:06:03.947Z,15.08
2022-09-01T05:08:35.410Z,15.09
2022-09-01T05:11:09.325Z,15.00
2022-09-01T05:13:49.275Z,14.92
2022-09-01T05:16:25.285Z,14.88
2022-09-01T05:18:57.980Z,14.85
2022-09-01T05:21:30.780Z,14.81
2022-09-01T05:24:03.844Z,14.84
2022-09-01T05:26:34.727Z,14.85
2022-09-01T05:29:10.796Z,14.87
2022-09-01T05:31:39.538Z,14.89
2022-09-01T05:34:09.975Z,14.88
2022-09-01T05:36:42.612Z,14.82
2022-09-01T05:39:12.328Z,14.82
2022-09-01T05:41:41.297Z,14.88
2022-09-01T05:44:11.491Z,14.82
2022-09-01T05:46:42.616Z,14.79
2022-09-01T05:49:14.167Z,14.79
2022-09-01T05:51:46.472Z,14.80
2022-09-01T05:54:23.283Z,14.81
2022-09-01T05:56:53.714Z,14.79
2022-09-01T05:59:31.343Z,14.87
2022-09-01T06:02:04.137Z,14.82
2022-09-01T06:04:32.405Z,14.85
2022-09-01T06:07:11.904Z,14.88
2022-09-01T06:09:53.820Z,14.84
2022-09-01T06:12:25.455Z,14.86
2022-09-01T06:14:58.248Z,14.88
2022-09-01T06:17:30.178Z,14.88
2022-09-01T06:20:10.942Z,14.94
2022-09-01T06:22:43.002Z,14.94
2022-09-01T06:25:12.080Z,14.96
2022-09-01T06:27:44.978Z,14.94
2022-09-01T06:30:23.863Z,14.98
2022-09-01T06:33:12.747Z,15.04
2022-09-01T06:35:44.811Z,15.04
2022-09-01T06:38:17.536Z,15.11
2022-09-01T06:40:48.553Z,15.11
2022-09-01T06:43:20.645Z,15.17
2022-09-01T06:45:54.619Z,15.20
2022-09-01T06:48:24.993Z,15.19
2022-09-01T06:51:21.000Z,15.24
2022-09-01T06:53:56.844Z,15.21
2022-09-01T06:56:32.253Z,15.29
2022-09-01T06:59:05.853Z,15.37
2022-09-01T07:01:39.534Z,15.49
2022-09-01T07:04:12.861Z,15.48
2022-09-01T07:09:50.078Z,15.55
2022-09-01T07:13:04.826Z,15.65
2022-09-01T07:18:25.193Z,15.64
2022-09-01T07:21:36.761Z,15.63
2022-09-01T07:24:08.045Z,15.60
2022-09-01T07:26:35.721Z,15.72
2022-09-01T07:29:06.289Z,15.77
2022-09-01T07:34:39.693Z,15.93
2022-09-01T07:43:17.793Z,16.16
2022-09-01T07:51:53.265Z,16.22
2022-09-01T07:54:24.042Z,16.24
2022-09-01T07:56:55.557Z,16.26
2022-09-01T07:59:26.767Z,16.24
2022-09-01T08:02:06.635Z,16.33
2022-09-01T08:04:35.225Z,16.33
2022-09-01T08:07:06.672Z,16.40
2022-09-01T08:09:44.157Z,16.49
2022-09-01T08:12:14.549Z,16.68
2022-09-01T08:15:12.735Z,16.74
2022-09-01T08:17:58.349Z,16.88
2022-09-01T08:20:30.525Z,16.80
2022-09-01T08:23:27.353Z,16.92
2022-09-01T08:25:55.857Z,16.96
2022-09-01T08:28:26.826Z,16.93
2022-09-01T08:30:58.360Z,17.02
2022-09-01T08:33:27.478Z,17.05
2022-09-01T08:35:57.420Z,17.12
2022-09-01T08:38:29.186Z,17.19
2022-09-01T08:41:00.638Z,17.35
2022-09-01T08:43:51.751Z,17.45
2022-09-01T08:46:26.655Z,17.39
2022-09-01T08:52:15.218Z,17.52
2022-09-01T08:54:49.439Z,17.66
2022-09-01T08:57:21.038Z,17.76
2022-09-01T09:00:10.970Z,17.88
2022-09-01T09:02:52.431Z,17.90
2022-09-01T09:05:49.175Z,18.02
2022-09-01T09:08:49.855Z,18.07
2022-09-01T09:11:47.746Z,18.19
2022-09-01T09:14:29.042Z,18.17
2022-09-01T09:16:57.883Z,18.16
2022-09-01T09:19:30.062Z,18.25
2022-09-01T09:22:00.151Z,18.20
2022-09-01T09:24:47.209Z,18.27
2022-09-01T09:27:22.594Z,18.34
2022-09-01T09:29:53.509Z,18.38
2022-09-01T09:32:35.266Z,18.42
2022-09-01T09:35:21.785Z,18.40
2022-09-01T09:37:50.031Z,18.51
2022-09-01T09:40:20.259Z,18.55
2022-09-01T09:43:05.656Z,18.46
2022-09-01T09:45:36.975Z,18.39
2022-09-01T09:48:11.135Z,18.50
2022-09-01T09:50:42.089Z,18.52
2022-09-01T09:53:29.072Z,18.63
2022-09-01T09:56:01.150Z,18.69
2022-09-01T09:58:37.380Z,18.78
2022-09-01T10:01:11.285Z,18.95
2022-09-01T10:03:43.541Z,19.14
2022-09-01T10:06:14.918Z,19.05
2022-09-01T10:08:48.219Z,18.98
2022-09-01T10:11:35.723Z,19.06
2022-09-01T10:14:10.995Z,19.23
2022-09-01T10:16:43.128Z,19.30
2022-09-01T10:19:16.372Z,19.22
2022-09-01T10:21:46.602Z,19.18
2022-09-01T10:24:25.729Z,18.94
2022-09-01T10:26:58.662Z,19.07
2022-09-01T10:29:47.028Z,19.13
2022-09-01T10:32:35.188Z,19.10
2022-09-01T10:35:07.394Z,19.09
2022-09-01T10:37:36.306Z,19.17
2022-09-01T10:40:20.514Z,19.29
2022-09-01T10:42:55.169Z,19.50
2022-09-01T10:45:38.320Z,19.78
2022-09-01T10:48:31.934Z,19.92
2022-09-01T10:51:38.858Z,20.05
2022-09-01T10:54:08.125Z,20.26
2022-09-01T10:56:44.373Z,20.26
2022-09-01T10:59:31.814Z,20.44
2022-09-01T11:02:34.927Z,20.56
2022-09-01T11:05:19.370Z,20.68
2022-09-01T11:08:00.567Z,20.96
2022-09-01T11:10:53.502Z,21.35
2022-09-01T11:13:37.255Z,21.55
2022-09-01T11:16:50.483Z,21.71
2022-09-01T11:19:44.450Z,22.02
2022-09-01T11:22:32.757Z,22.04
2022-09-01T11:25:40.399Z,22.08
2022-09-01T11:28:27.808Z,21.82
2022-09-01T11:31:00.468Z,21.61
2022-09-01T11:33:51.942Z,21.97
2022-09-01T11:36:31.402Z,22.34
2022-09-01T11:39:07.177Z,22.68
2022-09-01T11:41:48.954Z,22.91
2022-09-01T11:44:25.588Z,23.13
2022-09-01T11:46:59.621Z,23.24
2022-09-01T11:49:29.913Z,23.45
2022-09-01T11:52:01.436Z,23.56
2022-09-01T11:54:31.329Z,24.02
2022-09-01T11:56:59.443Z,24.00
2022-09-01T11:59:35.556Z,23.81
2022-09-01T12:02:04.074Z,23.95
2022-09-01T12:04:36.307Z,23.90
2022-09-01T12:07:10.901Z,23.75
2022-09-01T12:09:43.526Z,23.82
2022-09-01T12:12:29.465Z,23.33
2022-09-01T12:15:05.713Z,23.49
2022-09-01T12:17:35.406Z,23.93
2022-09-01T12:20:29.622Z,24.36
2022-09-01T12:23:02.396Z,24.68
2022-09-01T12:25:33.006Z,24.79
2022-09-01T12:28:02.153Z,25.06
2022-09-01T12:30:35.320Z,25.32
2022-09-01T12:33:23.939Z,25.44
2022-09-01T12:35:57.357Z,25.65
2022-09-01T12:38:31.669Z,25.85
2022-09-01T12:41:00.011Z,25.98
2022-09-01T12:43:34.845Z,26.02
2022-09-01T12:46:04.786Z,25.82
2022-09-01T12:48:35.241Z,26.00
2022-09-01T12:51:05.464Z,26.28
2022-09-01T12:53:36.949Z,26.52
2022-09-01T12:56:22.832Z,26.51
2022-09-01T12:59:04.238Z,25.80
2022-09-01T13:01:35.018Z,25.38
2022-09-01T13:04:15.904Z,24.98
2022-09-01T13:06:44.107Z,24.95
2022-09-01T13:09:13.715Z,25.21
2022-09-01T13:14:31.687Z,25.87
2022-09-01T13:17:00.207Z,26.04
2022-09-01T13:19:30.549Z,26.32
2022-09-01T13:21:59.075Z,26.59
2022-09-01T13:24:31.452Z,26.93
2022-09-01T13:29:48.571Z,27.20
2022-09-01T13:32:18.414Z,26.21
2022-09-01T13:34:48.506Z,26.04
2022-09-01T13:37:18.826Z,25.19
2022-09-01T13:39:48.693Z,25.32
2022-09-01T13:42:17.149Z,25.43
2022-09-01T13:44:48.310Z,26.02
2022-09-01T13:47:33.481Z,26.66
2022-09-01T13:50:07.267Z,25.88
2022-09-01T13:52:36.247Z,25.85
2022-09-01T13:55:07.471Z,25.44
2022-09-01T13:57:36.267Z,24.59
2022-09-01T14:00:10.845Z,24.62
2022-09-01T14:02:39.929Z,24.86
2022-09-01T14:05:09.078Z,24.94
2022-09-01T14:07:37.302Z,25.63
2022-09-01T14:10:09.084Z,25.70
2022-09-01T14:12:37.578Z,26.15
2022-09-01T14:15:13.177Z,26.50
2022-09-01T14:17:47.491Z,26.61
2022-09-01T14:20:19.352Z,27.02
2022-09-01T14:22:48.144Z,27.15
2022-09-01T14:25:18.514Z,26.80
2022-09-01T14:27:47.776Z,26.34
2022-09-01T14:30:19.354Z,26.25
2022-09-01T14:32:47.997Z,26.27
2022-09-01T14:35:17.782Z,26.06
2022-09-01T14:37:46.054Z,25.97
2022-09-01T14:40:17.213Z,26.15
2022-09-01T14:42:49.695Z,26.38
2022-09-01T14:45:19.669Z,26.45
2022-09-01T14:47:48.853Z,26.61
2022-09-01T14:50:22.779Z,26.32
2022-09-01T14:52:54.450Z,26.30
2022-09-01T14:55:23.978Z,26.37
2022-09-01T14:57:55.052Z,26.82
2022-09-01T15:00:25.269Z,27.46
2022-09-01T15:02:54.971Z,27.49
2022-09-01T15:05:24.794Z,27.21
2022-09-01T15:07:53.235Z,26.80
2022-09-01T15:10:25.395Z,26.41
2022-09-01T15:12:57.478Z,26.46
2022-09-01T15:15:27.126Z,26.89
2022-09-01T15:17:56.237Z,27.40
2022-09-01T15:20:42.664Z,28.12
2022-09-01T15:23:11.451Z,28.67
2022-09-01T15:25:39.758Z,28.36
2022-09-01T15:28:09.340Z,28.42
2022-09-01T15:30:39.319Z,28.71
2022-09-01T15:33:14.675Z,28.66
2022-09-01T15:35:44.058Z,28.43
2022-09-01T15:38:12.459Z,27.95
2022-09-01T15:40:48.747Z,28.54
2022-09-01T15:43:28.086Z,28.87
2022-09-01T15:45:58.296Z,28.96
2022-09-01T15:48:27.747Z,27.98
2022-09-01T15:51:08.339Z,27.37
2022-09-01T15:53:36.486Z,26.89
2022-09-01T15:56:04.841Z,26.94
2022-09-01T15:58:59.506Z,26.68
2022-09-01T16:01:24.319Z,26.61
2022-09-01T16:03:52.519Z,26.15
2022-09-01T16:06:20.736Z,25.87
2022-09-01T16:08:49.481Z,25.75
2022-09-01T16:11:17.629Z,25.46
2022-09-01T16:13:47.162Z,25.53
2022-09-01T16:16:33.754Z,25.35
2022-09-01T16:19:07.264Z,25.32
2022-09-01T16:21:45.495Z,25.19
2022-09-01T16:24:15.106Z,24.97
2022-09-01T16:26:47.259Z,25.05
2022-09-01T16:29:22.124Z,24.62
2022-09-01T16:31:56.071Z,24.79
2022-09-01T16:34:27.757Z,24.81
2022-09-01T16:37:05.812Z,24.72
2022-09-01T16:39:40.966Z,24.53
2022-09-01T16:42:18.653Z,24.42
2022-09-01T16:45:03.037Z,24.28
2022-09-01T16:47:41.966Z,24.35
2022-09-01T16:50:21.951Z,24.07
2022-09-01T16:53:05.766Z,23.75
2022-09-01T16:55:42.004Z,23.83
2022-09-01T16:58:22.531Z,23.89
2022-09-01T17:01:04.567Z,23.71
2022-09-01T17:03:42.755Z,23.75
2022-09-01T17:06:20.895Z,23.77
2022-09-01T17:08:54.952Z,23.70
2022-09-01T17:11:34.137Z,23.66
2022-09-01T17:14:04.142Z,23.59
2022-09-01T17:16:37.100Z,23.69
2022-09-01T17:19:08.244Z,23.68
2022-09-01T17:21:46.172Z,23.54
2022-09-01T17:24:29.177Z,23.41
2022-09-01T17:27:07.862Z,23.43
2022-09-01T17:29:44.973Z,23.46
2022-09-01T17:32:30.946Z,23.36
2022-09-01T17:35:15.789Z,23.13
2022-09-01T17:37:58.220Z,23.13
2022-09-01T17:40:35.216Z,23.01
2022-09-01T17:43:08.325Z,22.95
2022-09-01T17:45:51.281Z,22.80
2022-09-01T17:48:27.959Z,22.71
2022-09-01T17:51:05.380Z,22.52
2022-09-01T17:53:44.161Z,22.37
2022-09-01T17:56:27.995Z,22.19
2022-09-01T17:59:04.683Z,22.03
2022-09-01T18:01:39.187Z,21.93
2022-09-01T18:04:39.052Z,21.73
2022-09-01T18:07:16.017Z,21.66
2022-09-01T18:09:50.219Z,21.62
2022-09-01T18:12:22.122Z,21.52
2022-09-01T18:14:57.962Z,21.45
2022-09-01T18:17:31.446Z,21.40
2022-09-01T18:20:07.489Z,21.35
2022-09-01T18:22:43.119Z,21.36
2022-09-01T18:25:18.570Z,21.30
2022-09-01T18:27:48.127Z,21.15
2022-09-01T18:30:26.225Z,21.08
2022-09-01T18:33:13.163Z,21.00
2022-09-01T18:35:47.781Z,20.90
2022-09-01T18:38:33.940Z,20.81
2022-09-01T18:41:15.876Z,20.75
2022-09-01T18:43:46.156Z,20.71
2022-09-01T18:46:21.949Z,20.65
2022-09-01T18:49:03.498Z,20.61
2022-09-01T18:51:57.094Z,20.63
2022-09-01T18:54:34.582Z,20.56
2022-09-01T18:57:04.933Z,20.63
2022-09-01T18:59:59.746Z,20.55
2022-09-01T19:02:44.773Z,20.56
2022-09-01T19:05:21.266Z,20.42
2022-09-01T19:07:58.005Z,20.39
2022-09-01T19:10:31.458Z,20.33
2022-09-01T19:13:08.824Z,20.32
2022-09-01T19:15:43.330Z,20.19
2022-09-01T19:18:22.591Z,20.06
2022-09-01T19:20:53.749Z,20.01
2022-09-01T19:23:36.055Z,20.01
2022-09-01T19:26:12.404Z,19.89
2022-09-01T19:28:44.955Z,19.79
2022-09-01T19:31:22.260Z,19.75
2022-09-01T19:33:53.988Z,19.75
2022-09-01T19:36:27.298Z,19.76
2022-09-01T19:38:57.038Z,19.82
2022-09-01T19:41:29.810Z,19.77
2022-09-01T19:44:08.304Z,19.64
2022-09-01T19:46:42.409Z,19.34
2022-09-01T19:49:18.957Z,19.13
2022-09-01T19:51:52.823Z,19.07
2022-09-01T19:54:27.813Z,18.93
2022-09-01T19:57:03.760Z,19.01
2022-09-01T19:59:45.264Z,18.81
2022-09-01T20:02:21.308Z,18.91
2022-09-01T20:04:57.028Z,18.94
2022-09-01T20:07:32.519Z,19.02
2022-09-01T20:10:23.227Z,18.96
2022-09-01T20:13:00.481Z,18.97
2022-09-01T20:15:35.484Z,18.83
2022-09-01T20:18:07.064Z,18.86
2022-09-01T20:20:40.114Z,18.91
2022-09-01T20:23:17.004Z,18.87
2022-09-01T20:25:50.946Z,18.90
2022-09-01T20:28:25.675Z,18.91
2022-09-01T20:30:59.190Z,18.87
2022-09-01T20:33:35.850Z,18.79
2022-09-01T20:36:12.489Z,18.76
2022-09-01T20:39:06.758Z,18.69
2022-09-01T20:41:43.014Z,18.63
2022-09-01T20:44:19.892Z,18.51
2022-09-01T20:46:52.268Z,18.47
2022-09-01T20:49:20.400Z,18.49
2022-09-01T20:51:56.949Z,18.51
2022-09-01T20:54:33.784Z,18.45
2022-09-01T20:57:15.025Z,18.41
2022-09-01T20:59:48.943Z,18.35
2022-09-01T21:02:31.717Z,18.36
2022-09-01T21:05:10.915Z,18.34
2022-09-01T21:07:47.092Z,18.28
2022-09-01T21:10:23.213Z,18.31
2022-09-01T21:12:57.938Z,18.27
2022-09-01T21:15:39.908Z,18.22
2022-09-01T21:18:22.081Z,18.22
2022-09-01T21:20:57.988Z,18.21
2022-09-01T21:23:26.393Z,18.19
2022-09-01T21:25:54.597Z,18.15
2022-09-01T21:28:26.525Z,18.16
2022-09-01T21:30:57.670Z,18.17
2022-09-01T21:33:28.715Z,18.16
2022-09-01T21:35:57.613Z,18.14
2022-09-01T21:38:26.310Z,18.13
2022-09-01T21:40:54.922Z,18.12
2022-09-01T21:43:28.329Z,18.11
2022-09-01T21:45:56.787Z,18.11
2022-09-01T21:48:25.584Z,18.09
2022-09-01T21:50:53.789Z,18.10
2022-09-01T21:53:22.012Z,18.10
2022-09-01T21:55:50.237Z,18.12
2022-09-01T21:58:18.345Z,18.12
2022-09-01T22:00:48.876Z,18.15
2022-09-01T22:03:20.229Z,18.13
2022-09-01T22:05:48.514Z,18.11
2022-09-01T22:08:17.228Z,18.11
2022-09-01T22:10:47.556Z,18.08
2022-09-01T22:13:15.924Z,18.06
2022-09-01T22:15:46.594Z,18.02
2022-09-01T22:18:18.116Z,18.01
2022-09-01T22:20:47.386Z,18.00
2022-09-01T22:23:16.411Z,17.99
2022-09-01T22:25:47.103Z,18.00
2022-09-01T22:28:15.365Z,18.01
2022-09-01T22:30:47.845Z,18.02
2022-09-01T22:33:18.273Z,18.03
2022-09-01T22:35:49.535Z,18.03
2022-09-01T22:38:19.310Z,17.99
2022-09-01T22:40:49.952Z,18.00
2022-09-01T22:43:18.747Z,18.01
2022-09-01T22:45:48.038Z,18.00
2022-09-01T22:48:18.577Z,18.02
2022-09-01T22:50:48.013Z,18.02
2022-09-01T22:53:18.544Z,18.03
2022-09-01T22:55:49.412Z,18.02
2022-09-01T22:58:18.639Z,18.02
2022-09-01T23:00:49.371Z,17.99
2022-09-01T23:03:20.962Z,17.98
2022-09-01T23:05:50.376Z,17.94
2022-09-01T23:08:19.170Z,17.93
2022-09-01T23:10:48.304Z,17.92
2022-09-01T23:13:17.292Z,17.92
2022-09-01T23:15:45.521Z,17.90
2022-09-01T23:18:13.600Z,17.86
2022-09-01T23:20:43.231Z,17.88
2022-09-01T23:23:11.477Z,17.87
2022-09-01T23:25:43.700Z,17.87
2022-09-01T23:28:11.919Z,17.83
2022-09-01T23:30:42.827Z,17.83
2022-09-01T23:33:10.980Z,17.82
2022-09-01T23:35:43.372Z,17.78
2022-09-01T23:38:11.842Z,17.79
2022-09-01T23:40:42.418Z,17.77
2022-09-01T23:43:11.486Z,17.76
2022-09-01T23:45:41.063Z,17.75
2022-09-01T23:48:09.783Z,17.79
2022-09-01T23:50:43.855Z,17.79
2022-09-01T23:53:11.807Z,17.77
2022-09-01T23:55:43.729Z,17.80
2022-09-01T23:58:12.585Z,17.79
